Time;durP1;ratioP1;P1;durP2;ratioP2;P2;SDS_P1;SDS_P2;PMS_P1;PMS_P2;Temp;Humidity;BMP_temperature;BMP_pressure;BME280_temperature;BME280_humidity;BME280_pressure;Samples;Min_cycle;Max_cycle;Signal;HPM_P1;HPM_P2
2023/05/13 00:01:47;;;;;;;16.37;15.07;;;14.50;99.90;;;;;;5050845;28;20200;-72
2023/05/13 00:04:13;;;;;;;15.43;14.23;;;14.50;99.90;;;;;;5047917;28;20260;-72
2023/05/13 00:06:38;;;;;;;17.80;16.40;;;14.40;99.90;;;;;;5033447;28;20189;-72
2023/05/13 00:09:04;;;;;;;17.57;16.10;;;14.40;99.90;;;;;;5041943;28;20182;-72
2023/05/13 00:11:30;;;;;;;17.50;15.90;;;14.20;99.90;;;;;;5036457;28;20638;-73
2023/05/13 00:13:56;;;;;;;16.77;15.20;;;14.20;99.90;;;;;;5031314;28;20214;-73
2023/05/13 00:16:24;;;;;;;17.30;16.00;;;14.30;99.90;;;;;;5031700;28;20182;-72
2023/05/13 00:18:50;;;;;;;16.93;15.60;;;14.30;99.90;;;;;;5031749;28;20924;-72
2023/05/13 00:21:16;;;;;;;16.00;14.80;;;14.30;99.90;;;;;;5031815;28;20420;-72
2023/05/13 00:23:42;;;;;;;15.40;14.27;;;14.30;99.90;;;;;;5021167;28;20431;-72
2023/05/13 00:26:08;;;;;;;15.47;14.17;;;14.30;99.90;;;;;;5045166;28;20190;-73
2023/05/13 00:28:34;;;;;;;16.13;14.93;;;14.30;99.90;;;;;;5032718;28;20405;-72
2023/05/13 00:30:59;;;;;;;15.67;14.40;;;14.30;99.90;;;;;;5039722;28;20182;-72
2023/05/13 00:33:25;;;;;;;15.90;14.50;;;14.20;99.90;;;;;;5046755;28;20653;-73
2023/05/13 00:35:51;;;;;;;14.47;13.47;;;14.20;99.90;;;;;;5031602;28;20231;-72
2023/05/13 00:38:16;;;;;;;14.97;13.77;;;14.20;99.90;;;;;;5051271;28;20636;-72
2023/05/13 00:40:43;;;;;;;16.40;15.00;;;14.20;99.90;;;;;;5042875;28;20261;-72
2023/05/13 00:43:09;;;;;;;15.70;14.40;;;14.10;99.90;;;;;;5042528;28;20285;-72
2023/05/13 00:45:38;;;;;;;15.30;13.80;;;14.10;99.90;;;;;;5032025;28;20869;-72
2023/05/13 00:48:07;;;;;;;15.73;14.43;;;14.10;99.90;;;;;;5030948;28;20428;-72
2023/05/13 00:50:33;;;;;;;15.90;14.60;;;14.10;99.90;;;;;;5037271;28;20425;-72
2023/05/13 00:53:00;;;;;;;16.00;14.57;;;14.10;99.90;;;;;;5050899;28;20949;-72
2023/05/13 00:55:26;;;;;;;14.13;13.03;;;14.10;99.90;;;;;;5051584;28;20187;-72
2023/05/13 00:57:52;;;;;;;14.53;13.43;;;14.00;99.90;;;;;;5051294;28;20514;-73
2023/05/13 01:00:18;;;;;;;14.33;13.23;;;14.00;99.90;;;;;;5051488;28;20170;-73
2023/05/13 01:02:53;;;;;;;15.53;14.23;;;14.00;99.90;;;;;;5051518;28;20181;-72
2023/05/13 01:05:56;;;;;;;14.63;13.63;;;13.90;99.90;;;;;;5054001;28;20526;-72
2023/05/13 01:08:25;;;;;;;16.17;14.80;;;13.90;99.90;;;;;;5064126;28;20517;-72
2023/05/13 01:11:02;;;;;;;14.87;13.87;;;13.90;99.90;;;;;;5055937;28;20484;-73
2023/05/13 01:13:35;;;;;;;16.57;15.13;;;13.80;99.90;;;;;;5061913;28;20452;-72
2023/05/13 01:16:13;;;;;;;16.60;15.00;;;13.80;99.90;;;;;;5061205;28;20454;-73
2023/05/13 01:18:44;;;;;;;14.60;13.40;;;13.80;99.90;;;;;;5070631;28;20434;-72
2023/05/13 01:21:11;;;;;;;15.87;14.67;;;13.80;99.90;;;;;;5057591;28;20432;-72
2023/05/13 01:23:37;;;;;;;15.37;14.17;;;13.80;99.90;;;;;;5051256;28;20419;-72
2023/05/13 01:26:03;;;;;;;15.23;13.97;;;13.70;99.90;;;;;;5050667;28;20400;-72
2023/05/13 01:28:29;;;;;;;15.20;14.00;;;13.70;99.90;;;;;;5056458;28;20507;-72
2023/05/13 01:30:56;;;;;;;15.60;14.23;;;13.70;99.90;;;;;;5058200;28;20196;-72
2023/05/13 01:33:23;;;;;;;15.43;14.23;;;13.70;99.90;;;;;;5054415;28;20978;-73
2023/05/13 01:35:49;;;;;;;14.70;13.50;;;13.80;99.90;;;;;;5070492;28;20507;-72
2023/05/13 01:38:15;;;;;;;14.40;13.30;;;13.70;99.90;;;;;;5070936;28;20468;-72
2023/05/13 01:40:41;;;;;;;15.27;13.77;;;13.70;99.90;;;;;;5056066;28;20813;-73
2023/05/13 01:43:07;;;;;;;15.20;14.00;;;13.70;99.90;;;;;;5053794;28;20435;-73
2023/05/13 01:45:33;;;;;;;14.70;13.60;;;13.70;99.90;;;;;;5054356;28;20768;-73
2023/05/13 01:47:59;;;;;;;15.47;14.00;;;13.70;99.90;;;;;;5071941;28;20190;-73
2023/05/13 01:50:25;;;;;;;15.73;14.37;;;13.70;99.90;;;;;;5061157;28;20423;-73
2023/05/13 01:52:51;;;;;;;13.20;12.07;;;13.60;99.90;;;;;;5035931;28;20236;-73
2023/05/13 01:55:17;;;;;;;14.60;13.40;;;13.60;99.90;;;;;;5033629;28;20537;-73
2023/05/13 01:57:42;;;;;;;12.03;11.03;;;13.60;99.90;;;;;;5034524;28;20182;-73
2023/05/13 02:00:08;;;;;;;13.50;12.33;;;13.50;99.90;;;;;;5034164;28;20435;-73
2023/05/13 02:02:34;;;;;;;12.83;11.80;;;13.50;99.90;;;;;;5035114;28;20530;-73
2023/05/13 02:05:00;;;;;;;13.40;12.40;;;13.50;99.90;;;;;;5034144;28;20432;-73
2023/05/13 02:07:26;;;;;;;13.03;12.10;;;13.50;99.90;;;;;;5034581;28;20203;-73
2023/05/13 02:09:58;;;;;;;13.40;12.20;;;13.50;99.90;;;;;;5034336;28;20190;-73
2023/05/13 02:12:25;;;;;;;13.00;12.10;;;13.40;99.90;;;;;;5034894;28;20542;-73
2023/05/13 02:14:52;;;;;;;14.30;13.10;;;13.40;99.90;;;;;;5040925;28;20554;-73
2023/05/13 02:17:17;;;;;;;14.00;12.80;;;13.40;99.90;;;;;;5045993;28;20436;-72
2023/05/13 02:19:43;;;;;;;13.53;12.33;;;13.40;99.90;;;;;;5044076;28;20832;-72
2023/05/13 02:22:09;;;;;;;14.13;13.00;;;13.40;99.90;;;;;;5045328;28;20185;-73
2023/05/13 02:24:38;;;;;;;12.70;11.80;;;13.30;99.90;;;;;;5016793;28;20185;-73
2023/05/13 02:27:06;;;;;;;12.93;11.80;;;13.30;99.90;;;;;;5033778;28;20185;-73
2023/05/13 02:29:34;;;;;;;12.20;11.30;;;13.30;99.90;;;;;;5034281;28;20432;-72
2023/05/13 02:31:59;;;;;;;15.13;12.77;;;13.30;99.90;;;;;;5033670;28;20405;-72
2023/05/13 02:34:25;;;;;;;12.77;11.57;;;13.20;99.90;;;;;;5034338;28;20462;-72
2023/05/13 02:36:51;;;;;;;12.73;11.33;;;13.20;99.90;;;;;;5033842;28;20267;-73
2023/05/13 02:39:17;;;;;;;13.13;12.03;;;13.20;99.90;;;;;;5033269;28;20519;-73
2023/05/13 02:41:43;;;;;;;14.60;13.40;;;13.10;99.90;;;;;;5034198;28;20183;-72
2023/05/13 02:44:10;;;;;;;13.90;12.80;;;13.10;99.90;;;;;;5031039;28;20431;-73
2023/05/13 02:46:35;;;;;;;13.47;12.43;;;13.10;99.90;;;;;;5044516;28;20201;-72
2023/05/13 02:49:02;;;;;;;14.03;13.00;;;13.10;99.90;;;;;;5015180;28;20439;-73
2023/05/13 02:51:27;;;;;;;12.67;11.77;;;13.10;99.90;;;;;;5027568;28;20773;-73
2023/05/13 02:53:53;;;;;;;12.53;11.43;;;13.00;99.90;;;;;;5053715;28;20501;-72
2023/05/13 02:56:19;;;;;;;12.53;11.43;;;13.00;99.90;;;;;;5064550;28;20217;-73
2023/05/13 02:58:45;;;;;;;12.50;11.50;;;13.00;99.90;;;;;;5052562;28;20620;-73
2023/05/13 03:01:11;;;;;;;13.60;12.60;;;13.00;99.90;;;;;;5052973;28;20426;-73
2023/05/13 03:03:37;;;;;;;12.83;11.83;;;13.00;99.90;;;;;;5053428;28;20932;-73
2023/05/13 03:06:04;;;;;;;12.97;11.97;;;12.90;99.90;;;;;;5053073;28;20266;-73
2023/05/13 03:08:30;;;;;;;14.63;13.33;;;12.90;99.90;;;;;;5069837;28;20180;-74
2023/05/13 03:10:56;;;;;;;13.03;12.03;;;12.90;99.90;;;;;;5064676;28;20767;-74
2023/05/13 03:13:22;;;;;;;12.30;11.30;;;12.90;99.90;;;;;;5068605;28;20464;-74
2023/05/13 03:15:48;;;;;;;13.90;11.50;;;12.80;99.90;;;;;;5056767;28;20430;-74
2023/05/13 03:18:13;;;;;;;12.23;11.23;;;12.80;99.90;;;;;;5052744;28;20271;-73
2023/05/13 03:20:39;;;;;;;13.40;12.20;;;12.80;99.90;;;;;;5053034;28;20170;-74
2023/05/13 03:23:05;;;;;;;14.40;13.10;;;12.80;99.90;;;;;;5068845;28;20217;-74
2023/05/13 03:25:30;;;;;;;12.73;11.53;;;12.70;99.90;;;;;;5063003;28;20178;-74
2023/05/13 03:27:56;;;;;;;13.00;12.00;;;12.80;99.90;;;;;;5052545;28;20192;-74
2023/05/13 03:30:22;;;;;;;13.33;12.23;;;12.80;99.90;;;;;;5052154;28;20173;-74
2023/05/13 03:32:48;;;;;;;13.50;12.50;;;12.70;99.90;;;;;;5053109;28;20179;-73
2023/05/13 03:35:13;;;;;;;15.30;13.90;;;12.70;99.90;;;;;;5052267;28;20209;-74
2023/05/13 03:37:39;;;;;;;17.70;16.13;;;12.60;99.90;;;;;;5052168;28;20187;-74
2023/05/13 03:40:05;;;;;;;16.63;15.00;;;12.60;99.90;;;;;;5064673;28;20646;-74
2023/05/13 03:42:31;;;;;;;14.70;13.30;;;12.60;99.90;;;;;;5064213;28;20247;-74
2023/05/13 03:44:57;;;;;;;15.80;14.30;;;12.60;99.90;;;;;;5072693;28;20448;-74
2023/05/13 03:47:23;;;;;;;13.20;12.23;;;12.60;99.90;;;;;;5071612;28;20179;-74
2023/05/13 03:49:48;;;;;;;12.90;11.90;;;12.60;99.90;;;;;;5063877;28;20186;-74
2023/05/13 03:52:15;;;;;;;13.57;12.47;;;12.60;99.90;;;;;;5037563;28;20454;-74
2023/05/13 03:54:41;;;;;;;12.83;11.83;;;12.60;99.90;;;;;;5032658;28;20208;-74
2023/05/13 03:57:07;;;;;;;13.63;12.47;;;12.60;99.90;;;;;;5037731;28;20483;-74
2023/05/13 03:59:33;;;;;;;15.07;13.70;;;12.60;99.90;;;;;;5031666;28;20439;-74
2023/05/13 04:01:59;;;;;;;15.53;14.13;;;12.60;99.90;;;;;;5032846;28;20423;-74
2023/05/13 04:04:25;;;;;;;14.80;13.50;;;12.60;99.90;;;;;;5040593;28;20178;-74
2023/05/13 04:06:50;;;;;;;13.47;12.27;;;12.60;99.90;;;;;;5047524;28;20433;-74
2023/05/13 04:09:16;;;;;;;14.60;13.37;;;12.60;99.90;;;;;;5031963;28;20186;-74
2023/05/13 04:11:42;;;;;;;15.00;13.47;;;12.50;99.90;;;;;;5032547;28;20238;-74
2023/05/13 04:14:08;;;;;;;14.50;13.17;;;12.50;99.90;;;;;;5031807;28;20201;-74
2023/05/13 04:16:34;;;;;;;14.43;13.23;;;12.50;99.90;;;;;;5036164;28;20218;-74
2023/05/13 04:19:00;;;;;;;14.20;13.00;;;12.50;99.90;;;;;;5036955;28;20863;-74
2023/05/13 04:21:26;;;;;;;14.67;13.30;;;12.50;99.90;;;;;;5036460;28;20534;-74
2023/05/13 04:23:51;;;;;;;15.07;13.77;;;12.50;99.90;;;;;;5051243;28;20268;-74
2023/05/13 04:26:17;;;;;;;12.63;11.73;;;12.40;99.90;;;;;;5051731;28;20885;-74
2023/05/13 04:28:43;;;;;;;13.07;12.07;;;12.40;99.90;;;;;;5042161;28;20271;-74
2023/05/13 04:31:10;;;;;;;13.50;12.50;;;12.50;99.90;;;;;;5031474;28;20617;-73
2023/05/13 04:33:36;;;;;;;13.87;12.60;;;12.50;99.90;;;;;;5050401;28;20663;-74
2023/05/13 04:36:01;;;;;;;13.57;12.53;;;12.50;99.90;;;;;;5044260;28;20531;-74
2023/05/13 04:38:27;;;;;;;15.17;13.97;;;12.50;99.90;;;;;;5031021;28;20251;-74
2023/05/13 04:40:53;;;;;;;15.70;14.20;;;12.50;99.90;;;;;;5033420;28;20181;-74
2023/05/13 04:43:20;;;;;;;18.60;16.80;;;12.50;99.90;;;;;;5038659;28;20192;-74
2023/05/13 04:45:47;;;;;;;17.40;15.87;;;12.50;99.90;;;;;;5031778;28;20195;-74
2023/05/13 04:48:13;;;;;;;15.80;14.50;;;12.50;99.90;;;;;;5026081;28;20432;-74
2023/05/13 04:50:43;;;;;;;15.80;14.47;;;12.50;99.90;;;;;;5035103;28;20433;-73
2023/05/13 04:53:09;;;;;;;16.10;14.70;;;12.50;99.90;;;;;;5031208;28;20268;-74
2023/05/13 04:55:34;;;;;;;15.40;14.10;;;12.60;99.90;;;;;;5031828;28;20865;-73
2023/05/13 04:58:00;;;;;;;14.87;13.60;;;12.60;99.90;;;;;;5031737;28;20511;-74
2023/05/13 05:00:26;;;;;;;16.60;14.90;;;12.60;99.90;;;;;;5030819;28;20258;-74
2023/05/13 05:02:52;;;;;;;15.63;14.27;;;12.60;99.90;;;;;;5034931;28;20185;-73
2023/05/13 05:05:18;;;;;;;21.13;14.73;;;12.60;99.90;;;;;;5034622;28;20999;-74
2023/05/13 05:07:43;;;;;;;15.80;14.40;;;12.60;99.90;;;;;;5035513;28;20219;-74
2023/05/13 05:10:09;;;;;;;14.27;13.10;;;12.70;99.90;;;;;;5034781;28;20684;-74
2023/05/13 05:12:36;;;;;;;14.50;13.30;;;12.60;99.90;;;;;;5035298;28;20215;-74
2023/05/13 05:15:04;;;;;;;14.87;13.47;;;12.60;99.90;;;;;;5041479;28;20460;-74
2023/05/13 05:17:31;;;;;;;14.53;13.40;;;12.60;99.90;;;;;;5054421;28;20765;-74
2023/05/13 05:19:58;;;;;;;15.23;14.03;;;12.70;99.90;;;;;;5037924;28;20434;-74
2023/05/13 05:22:25;;;;;;;14.90;13.70;;;12.70;99.90;;;;;;5040015;28;20440;-74
2023/05/13 05:24:50;;;;;;;13.17;12.17;;;12.70;99.90;;;;;;5055175;28;20424;-74
2023/05/13 05:27:17;;;;;;;13.03;12.03;;;12.70;99.90;;;;;;5021041;28;20437;-74
2023/05/13 05:29:42;;;;;;;12.63;11.53;;;12.70;99.90;;;;;;5037401;28;20185;-74
2023/05/13 05:32:08;;;;;;;12.47;11.37;;;12.70;99.90;;;;;;5054685;28;20481;-74
2023/05/13 05:34:34;;;;;;;11.80;10.80;;;12.70;99.90;;;;;;5053522;28;20199;-74
2023/05/13 05:37:00;;;;;;;12.47;11.57;;;12.70;99.90;;;;;;5053592;28;20189;-74
2023/05/13 05:39:26;;;;;;;12.30;11.40;;;12.70;99.90;;;;;;5035345;28;20806;-73
2023/05/13 05:41:52;;;;;;;12.50;11.60;;;12.70;99.90;;;;;;5047613;28;20188;-74
2023/05/13 05:44:18;;;;;;;13.20;12.13;;;12.70;99.90;;;;;;5034108;28;20188;-74
2023/05/13 05:46:43;;;;;;;13.80;12.80;;;12.70;99.90;;;;;;5050562;28;20438;-74
2023/05/13 05:49:09;;;;;;;14.10;12.90;;;12.70;99.90;;;;;;5046022;28;20179;-74
2023/05/13 05:51:35;;;;;;;13.73;12.60;;;12.70;99.90;;;;;;5034070;28;20225;-74
2023/05/13 05:54:01;;;;;;;12.47;11.67;;;12.70;99.90;;;;;;5034455;28;20218;-73
2023/05/13 05:56:27;;;;;;;12.37;11.50;;;12.60;99.90;;;;;;5038633;28;20275;-74
2023/05/13 05:58:52;;;;;;;13.90;12.80;;;12.60;99.90;;;;;;5017315;28;20496;-74
2023/05/13 06:01:18;;;;;;;13.83;12.83;;;12.60;99.90;;;;;;5045290;28;20182;-74
2023/05/13 06:03:44;;;;;;;11.73;10.93;;;12.60;99.90;;;;;;5051643;28;20509;-74
2023/05/13 06:06:10;;;;;;;13.93;12.93;;;12.60;99.90;;;;;;5053349;28;20466;-74
2023/05/13 06:08:36;;;;;;;13.83;12.80;;;12.60;99.90;;;;;;5018806;28;20470;-74
2023/05/13 06:11:01;;;;;;;13.20;12.10;;;12.70;99.90;;;;;;5046177;28;20583;-74
2023/05/13 06:13:27;;;;;;;14.70;13.50;;;12.70;99.90;;;;;;5031315;28;20324;-74
2023/05/13 06:15:53;;;;;;;14.17;13.07;;;12.70;99.90;;;;;;5033672;28;20281;-74
2023/05/13 06:18:19;;;;;;;15.77;14.63;;;12.70;99.90;;;;;;5047496;28;20178;-74
2023/05/13 06:20:44;;;;;;;16.27;15.17;;;12.80;99.90;;;;;;5050895;28;20183;-73
2023/05/13 06:23:10;;;;;;;14.33;13.30;;;12.80;99.90;;;;;;5048026;28;20181;-74
2023/05/13 06:25:36;;;;;;;14.07;12.97;;;12.80;99.90;;;;;;5044428;28;20190;-73
2023/05/13 06:28:02;;;;;;;15.37;14.13;;;12.80;99.90;;;;;;5049441;28;20420;-76
2023/05/13 06:30:28;;;;;;;14.73;13.63;;;12.70;99.90;;;;;;5048126;28;20622;-73
2023/05/13 06:32:54;;;;;;;15.10;13.90;;;12.70;99.90;;;;;;5030396;28;20434;-73
2023/05/13 06:35:20;;;;;;;15.93;14.60;;;12.70;99.90;;;;;;5049546;28;20203;-73
2023/05/13 06:37:49;;;;;;;15.40;14.10;;;12.90;99.90;;;;;;5044000;28;20428;-74
2023/05/13 06:40:15;;;;;;;15.87;14.47;;;13.10;99.90;;;;;;5038206;28;20948;-72
2023/05/13 06:42:41;;;;;;;15.87;14.67;;;13.10;99.90;;;;;;5048791;28;20526;-73
2023/05/13 06:45:07;;;;;;;16.83;15.43;;;13.10;99.90;;;;;;5039697;28;20189;-73
2023/05/13 06:47:34;;;;;;;15.73;14.43;;;13.30;99.90;;;;;;5033553;28;20256;-74
2023/05/13 06:50:00;;;;;;;17.33;15.83;;;13.40;99.90;;;;;;5034000;28;20904;-74
2023/05/13 06:52:26;;;;;;;15.80;14.40;;;13.60;99.90;;;;;;5033173;28;20472;-73
2023/05/13 06:54:51;;;;;;;16.00;14.80;;;13.70;99.90;;;;;;5033614;28;20564;-74
2023/05/13 06:57:17;;;;;;;16.00;14.80;;;13.80;99.90;;;;;;5033844;28;20546;-74
2023/05/13 06:59:43;;;;;;;17.40;16.03;;;13.90;99.90;;;;;;5033701;28;20179;-76
2023/05/13 07:02:10;;;;;;;17.03;15.63;;;14.10;99.90;;;;;;5040104;28;20272;-73
2023/05/13 07:04:36;;;;;;;16.07;14.77;;;14.10;99.90;;;;;;5048354;28;20939;-73
2023/05/13 07:07:01;;;;;;;16.73;15.33;;;14.20;99.90;;;;;;5051113;28;20794;-73
2023/05/13 07:09:27;;;;;;;17.17;15.50;;;14.30;99.90;;;;;;5045091;28;20426;-73
2023/05/13 07:11:53;;;;;;;17.23;15.83;;;14.40;99.90;;;;;;5033736;28;20221;-74
2023/05/13 07:14:20;;;;;;;17.33;15.73;;;14.60;99.90;;;;;;5033222;28;20662;-73
2023/05/13 07:16:45;;;;;;;16.80;15.17;;;14.70;99.90;;;;;;5034685;28;20192;-74
2023/05/13 07:19:11;;;;;;;16.50;15.20;;;14.90;99.90;;;;;;5044451;28;20501;-74
2023/05/13 07:21:37;;;;;;;18.70;17.13;;;15.00;99.90;;;;;;5033184;28;20185;-75
2023/05/13 07:24:04;;;;;;;18.30;16.70;;;15.20;99.90;;;;;;5033115;28;20220;-74
2023/05/13 07:26:31;;;;;;;17.60;16.10;;;15.30;99.90;;;;;;5043670;28;20434;-74
2023/05/13 07:28:56;;;;;;;18.83;17.23;;;15.40;99.90;;;;;;5033887;28;20579;-75
2023/05/13 07:31:22;;;;;;;18.10;16.57;;;15.50;99.90;;;;;;5036860;28;20511;-74
2023/05/13 07:33:48;;;;;;;17.53;16.03;;;15.60;99.90;;;;;;5047731;28;20194;-76
2023/05/13 07:36:14;;;;;;;17.43;16.03;;;15.70;99.90;;;;;;5033414;28;20409;-73
2023/05/13 07:38:40;;;;;;;19.07;17.47;;;15.70;99.90;;;;;;5015323;28;20522;-74
2023/05/13 07:41:06;;;;;;;18.10;16.60;;;15.80;99.90;;;;;;5033054;28;20415;-75
2023/05/13 07:43:33;;;;;;;17.43;16.03;;;15.90;99.90;;;;;;5032290;28;20210;-74
2023/05/13 07:46:00;;;;;;;18.00;16.20;;;16.10;99.90;;;;;;5033179;28;20244;-75
2023/05/13 07:48:27;;;;;;;17.87;16.47;;;16.20;99.90;;;;;;5049842;28;20424;-75
2023/05/13 07:50:53;;;;;;;17.33;16.00;;;16.40;99.90;;;;;;5037843;28;20503;-76
2023/05/13 07:53:18;;;;;;;16.70;15.37;;;16.40;99.90;;;;;;5044764;28;20523;-75
2023/05/13 07:55:46;;;;;;;17.50;16.10;;;16.50;99.90;;;;;;5034121;28;20182;-75
2023/05/13 07:58:13;;;;;;;17.50;15.87;;;16.80;99.90;;;;;;5019290;28;20206;-74
2023/05/13 08:00:39;;;;;;;17.83;16.30;;;16.80;99.90;;;;;;5032022;28;20471;-75
2023/05/13 08:03:05;;;;;;;18.40;16.90;;;17.00;99.90;;;;;;5032756;28;20178;-75
2023/05/13 08:05:30;;;;;;;15.97;14.63;;;17.10;99.90;;;;;;5032698;28;20186;-75
2023/05/13 08:07:56;;;;;;;16.33;15.03;;;17.20;99.90;;;;;;5032609;28;20190;-75
2023/05/13 08:10:22;;;;;;;16.60;15.10;;;17.40;99.90;;;;;;5031773;28;20182;-74
2023/05/13 08:12:52;;;;;;;16.10;14.70;;;17.50;99.90;;;;;;5014638;28;20189;-79
2023/05/13 08:15:18;;;;;;;17.30;15.80;;;17.60;99.90;;;;;;5031922;28;20467;-77
2023/05/13 08:17:44;;;;;;;15.03;13.93;;;17.80;99.90;;;;;;5034129;28;20396;-76
2023/05/13 08:20:10;;;;;;;14.10;13.00;;;18.10;99.90;;;;;;5052436;28;20412;-77
2023/05/13 08:22:36;;;;;;;16.67;15.40;;;18.30;99.90;;;;;;5038920;28;20182;-77
2023/05/13 08:25:02;;;;;;;15.60;14.23;;;18.50;99.90;;;;;;5014773;28;20594;-76
2023/05/13 08:27:28;;;;;;;16.57;14.97;;;18.70;99.90;;;;;;5031873;28;20173;-76
2023/05/13 08:29:53;;;;;;;16.70;15.20;;;18.80;99.90;;;;;;5032518;28;20425;-76
2023/05/13 08:32:19;;;;;;;15.70;14.63;;;18.90;99.90;;;;;;5031908;28;20885;-76
2023/05/13 08:34:45;;;;;;;16.67;15.40;;;19.00;99.90;;;;;;5032265;28;20206;-76
2023/05/13 08:37:11;;;;;;;16.90;15.40;;;19.20;99.90;;;;;;5032257;28;20224;-76
2023/05/13 08:39:40;;;;;;;16.10;14.80;;;19.30;99.90;;;;;;5036190;28;20174;-77
2023/05/13 08:42:07;;;;;;;15.23;13.73;;;19.40;99.90;;;;;;5036402;28;20411;-77
2023/05/13 08:44:38;;;;;;;16.33;14.73;;;19.60;99.90;;;;;;5050740;28;20655;-77
2023/05/13 08:47:21;;;;;;;16.40;14.93;;;19.70;99.90;;;;;;5050715;28;20478;-76
2023/05/13 08:49:47;;;;;;;16.87;15.30;;;19.80;99.90;;;;;;5044793;28;20515;-76
2023/05/13 08:52:13;;;;;;;15.83;14.53;;;19.90;99.90;;;;;;5041377;28;20468;-77
2023/05/13 08:54:42;;;;;;;15.63;14.03;;;20.00;99.90;;;;;;5042260;28;20955;-76
2023/05/13 08:57:07;;;;;;;16.50;15.20;;;20.10;99.90;;;;;;5044918;28;20261;-76
2023/05/13 08:59:33;;;;;;;14.70;13.60;;;20.30;99.90;;;;;;5037955;28;20511;-76
2023/05/13 09:02:02;;;;;;;15.30;14.20;;;20.40;99.90;;;;;;5050851;28;20285;-77
2023/05/13 09:04:28;;;;;;;15.33;14.00;;;20.50;99.90;;;;;;5042964;28;20548;-77
2023/05/13 09:06:54;;;;;;;15.90;14.50;;;20.60;99.90;;;;;;5035812;28;20413;-77
2023/05/13 09:09:20;;;;;;;16.50;15.10;;;20.80;99.90;;;;;;5035770;28;20817;-77
2023/05/13 09:11:47;;;;;;;15.67;14.47;;;20.90;99.90;;;;;;5039934;28;20433;-77
2023/05/13 09:14:17;;;;;;;14.67;13.50;;;21.10;99.90;;;;;;5045934;28;20478;-77
2023/05/13 09:16:43;;;;;;;16.00;14.80;;;21.20;99.90;;;;;;5035143;28;20809;-77
2023/05/13 09:19:10;;;;;;;14.97;13.77;;;21.30;99.90;;;;;;5050551;28;20477;-77
2023/05/13 09:21:36;;;;;;;15.00;13.90;;;21.40;99.90;;;;;;5050596;28;20231;-77
2023/05/13 09:24:09;;;;;;;15.77;14.50;;;21.60;99.90;;;;;;5035707;28;20429;-77
2023/05/13 09:26:36;;;;;;;14.50;13.10;;;21.80;99.90;;;;;;5052381;28;20435;-76
2023/05/13 09:29:15;;;;;;;14.83;13.37;;;21.80;99.90;;;;;;5053545;28;20427;-77
2023/05/13 09:31:41;;;;;;;14.47;13.27;;;21.80;99.90;;;;;;5046002;28;20432;-77
2023/05/13 09:34:07;;;;;;;13.90;12.80;;;21.90;99.90;;;;;;5052792;28;20452;-77
2023/05/13 09:36:33;;;;;;;12.60;11.60;;;21.90;99.90;;;;;;5053030;28;20435;-78
2023/05/13 09:38:58;;;;;;;13.20;12.20;;;21.90;99.90;;;;;;5040480;28;20650;-77
2023/05/13 09:41:29;;;;;;;13.33;12.23;;;22.00;99.90;;;;;;5046539;28;20429;-76
2023/05/13 09:43:55;;;;;;;11.60;10.70;;;22.10;99.90;;;;;;5035134;28;20639;-77
2023/05/13 09:46:20;;;;;;;11.47;10.47;;;22.20;99.80;;;;;;5042988;28;20507;-77
2023/05/13 09:48:46;;;;;;;11.40;10.40;;;22.30;98.70;;;;;;5034872;28;20531;-78
2023/05/13 09:51:14;;;;;;;9.70;9.00;;;22.30;98.20;;;;;;5050721;28;20688;-76
2023/05/13 09:53:40;;;;;;;9.90;9.20;;;22.40;97.90;;;;;;5050900;28;20241;-77
2023/05/13 09:56:08;;;;;;;10.20;9.40;;;22.40;99.40;;;;;;5039633;28;20472;-75
2023/05/13 09:58:34;;;;;;;11.07;10.27;;;22.50;98.30;;;;;;5037982;28;20528;-77
2023/05/13 10:01:01;;;;;;;11.03;10.30;;;22.60;97.50;;;;;;5056949;28;20412;-77
2023/05/13 10:03:28;;;;;;;10.17;9.47;;;22.70;95.60;;;;;;5035188;28;20197;-78
2023/05/13 10:05:57;;;;;;;10.80;10.00;;;22.70;94.00;;;;;;5041830;28;20456;-77
2023/05/13 10:08:23;;;;;;;9.50;8.80;;;22.60;93.00;;;;;;5043697;28;20455;-77
2023/05/13 10:10:54;;;;;;;9.73;9.03;;;22.70;95.90;;;;;;5050208;28;20980;-76
2023/05/13 10:13:23;;;;;;;11.50;9.53;;;22.60;91.50;;;;;;5045149;28;20416;-76
2023/05/13 10:15:51;;;;;;;9.40;8.80;;;22.50;91.10;;;;;;5041933;28;20430;-76
2023/05/13 10:18:19;;;;;;;9.23;8.53;;;22.60;94.80;;;;;;5052377;28;20440;-77
2023/05/13 10:20:46;;;;;;;10.83;10.03;;;22.50;92.60;;;;;;5041178;28;20437;-77
2023/05/13 10:23:13;;;;;;;10.10;9.30;;;22.70;94.20;;;;;;5047666;28;20794;-77
2023/05/13 10:25:42;;;;;;;10.67;9.70;;;22.70;93.40;;;;;;5042735;28;20505;-77
2023/05/13 10:28:09;;;;;;;9.40;8.67;;;22.70;90.20;;;;;;5018070;28;20898;-76
2023/05/13 10:30:35;;;;;;;9.17;8.47;;;22.80;90.90;;;;;;5033457;28;20525;-76
2023/05/13 10:33:02;;;;;;;9.37;8.67;;;22.90;92.80;;;;;;5034167;28;20406;-77
2023/05/13 10:35:32;;;;;;;9.27;8.60;;;22.90;92.00;;;;;;5033685;28;20467;-77
2023/05/13 10:38:08;;;;;;;11.20;10.20;;;23.00;92.70;;;;;;5041050;28;20459;-77
2023/05/13 10:40:43;;;;;;;10.03;9.33;;;23.10;93.30;;;;;;5053323;28;20418;-77
2023/05/13 10:43:14;;;;;;;9.97;9.27;;;23.20;92.80;;;;;;5035476;28;20432;-77
2023/05/13 10:45:47;;;;;;;11.03;10.13;;;23.40;92.70;;;;;;5033338;28;20445;-77
2023/05/13 10:48:14;;;;;;;11.10;10.30;;;23.50;92.30;;;;;;5040651;28;20761;-77
2023/05/13 10:51:01;;;;;;;11.97;11.07;;;23.50;92.60;;;;;;5048479;28;20475;-77
2023/05/13 10:53:29;;;;;;;11.97;10.87;;;23.50;92.40;;;;;;5047184;28;20440;-78
2023/05/13 10:55:59;;;;;;;11.03;10.23;;;23.50;92.40;;;;;;5042490;28;20947;-77
2023/05/13 10:58:29;;;;;;;12.50;11.20;;;23.50;92.70;;;;;;5017875;28;20428;-78
2023/05/13 11:01:11;;;;;;;10.60;9.83;;;23.60;92.30;;;;;;5016011;28;20436;-79
2023/05/13 11:03:39;;;;;;;10.90;10.10;;;23.30;90.90;;;;;;5037601;28;20431;-76
2023/05/13 11:06:17;;;;;;;11.00;10.10;;;23.40;92.10;;;;;;5052134;28;20428;-78
2023/05/13 11:08:45;;;;;;;10.10;9.10;;;23.50;90.60;;;;;;5052346;28;20432;-78
2023/05/13 11:11:20;;;;;;;8.87;8.17;;;23.50;88.50;;;;;;5052640;28;20428;-77
2023/05/13 11:13:52;;;;;;;10.30;9.40;;;23.50;85.60;;;;;;5039919;28;20618;-77
2023/05/13 11:16:19;;;;;;;9.50;8.80;;;23.60;87.70;;;;;;5039553;28;20489;-77
2023/05/13 11:18:45;;;;;;;9.27;8.50;;;23.60;82.80;;;;;;5028081;28;20435;-78
2023/05/13 11:21:11;;;;;;;9.50;8.67;;;23.80;86.10;;;;;;5051910;28;20432;-76
2023/05/13 11:23:55;;;;;;;9.83;9.13;;;23.80;85.30;;;;;;5017581;28;20755;-75
2023/05/13 11:26:21;;;;;;;24.90;22.43;;;23.70;83.70;;;;;;5042259;28;20428;-75
2023/05/13 11:28:57;;;;;;;63.50;56.57;;;23.60;86.00;;;;;;5039302;28;20499;-78
2023/05/13 11:31:24;;;;;;;9.20;8.60;;;23.70;85.30;;;;;;5032969;28;20560;-77
2023/05/13 11:34:11;;;;;;;17.83;15.93;;;23.60;79.40;;;;;;5036550;28;20468;-77
2023/05/13 11:36:39;;;;;;;15.60;14.00;;;23.80;82.30;;;;;;5032288;28;20421;-74
2023/05/13 11:39:16;;;;;;;18.83;17.03;;;23.90;83.80;;;;;;5033209;28;20467;-75
2023/05/13 11:41:49;;;;;;;9.90;8.90;;;24.10;83.80;;;;;;5032814;28;20420;-77
2023/05/13 11:44:17;;;;;;;10.80;9.87;;;24.20;84.00;;;;;;5042969;28;20432;-75
2023/05/13 11:46:57;;;;;;;9.80;9.10;;;24.30;77.30;;;;;;5047699;28;20432;-77
2023/05/13 11:49:42;;;;;;;9.43;8.83;;;24.20;77.80;;;;;;5052953;28;20385;-76
2023/05/13 11:52:13;;;;;;;127.53;97.80;;;24.30;78.60;;;;;;5052373;28;20487;-76
2023/05/13 11:54:53;;;;;;;171.17;153.30;;;24.40;82.70;;;;;;5051594;28;20525;-77
2023/05/13 11:57:25;;;;;;;21.57;19.40;;;24.50;80.70;;;;;;5044290;28;20490;-75
2023/05/13 12:00:12;;;;;;;9.10;8.37;;;24.50;77.40;;;;;;5022765;28;20764;-75
2023/05/13 12:02:39;;;;;;;12.57;11.30;;;24.50;75.60;;;;;;5048651;28;20424;-75
2023/05/13 12:05:10;;;;;;;8.37;7.77;;;24.50;75.00;;;;;;5050914;28;20490;-80
2023/05/13 12:07:37;;;;;;;7.83;7.23;;;24.50;69.70;;;;;;5026447;28;20859;-77
2023/05/13 12:10:05;;;;;;;8.13;7.53;;;24.50;70.10;;;;;;5032889;28;20421;-80
2023/05/13 12:12:37;;;;;;;8.07;7.57;;;24.50;67.00;;;;;;5047193;28;20432;-78
2023/05/13 12:15:05;;;;;;;8.47;7.97;;;24.40;64.80;;;;;;5024548;28;20460;-79
2023/05/13 12:17:32;;;;;;;9.13;8.30;;;24.40;69.00;;;;;;5050966;28;20792;-79
2023/05/13 12:20:15;;;;;;;8.87;7.97;;;24.40;70.40;;;;;;5050100;28;20424;-79
2023/05/13 12:22:43;;;;;;;10.53;9.73;;;24.50;73.10;;;;;;5052473;28;20420;-79
2023/05/13 12:25:31;;;;;;;9.27;8.57;;;24.60;74.60;;;;;;5051230;28;20477;-78
2023/05/13 12:28:27;;;;;;;9.80;8.97;;;24.70;74.10;;;;;;5051947;28;20434;-78
2023/05/13 12:30:58;;;;;;;9.30;8.50;;;24.60;73.60;;;;;;5051986;28;20427;-79